Time;durP1;ratioP1;P1;durP2;ratioP2;P2;SDS_P1;SDS_P2;PMS_P1;PMS_P2;Temp;Humidity;BMP_temperature;BMP_pressure;BME280_temperature;BME280_humidity;BME280_pressure;Samples;Min_cycle;Max_cycle;Signal;HPM_P1;HPM_P2
2022/01/15 00:00:36;;;;;;;15.67;11.30;;;;;;;;;;5051747;28;20041;-56
2022/01/15 00:03:05;;;;;;;13.90;10.67;;;;;;;;;;5036173;28;20598;-57
2022/01/15 00:05:32;;;;;;;12.33;10.70;;;;;;;;;;5031656;28;20046;-57
2022/01/15 00:07:58;;;;;;;14.43;12.90;;;;;;;;;;5031105;28;20089;-55
2022/01/15 00:10:29;;;;;;;11.53;10.33;;;;;;;;;;5032021;28;20033;-57
2022/01/15 00:12:55;;;;;;;13.00;10.15;;;;;;;;;;5031920;28;20033;-57
2022/01/15 00:15:27;;;;;;;11.90;9.67;;;;;;;;;;5031665;28;20360;-55
2022/01/15 00:17:59;;;;;;;14.80;9.70;;;;;;;;;;5031033;28;20066;-55
2022/01/15 00:20:26;;;;;;;14.23;9.53;;;;;;;;;;5031949;28;20041;-56
2022/01/15 00:22:53;;;;;;;11.60;10.20;;;;;;;;;;5036454;28;20481;-55
2022/01/15 00:25:20;;;;;;;12.73;10.07;;;;;;;;;;5051586;28;20044;-57
2022/01/15 00:27:46;;;;;;;14.20;12.77;;;;;;;;;;5051011;28;20036;-58
2022/01/15 00:30:13;;;;;;;15.50;11.43;;;;;;;;;;5051352;28;20060;-55
2022/01/15 00:32:40;;;;;;;12.93;11.67;;;;;;;;;;5051271;28;20087;-56
2022/01/15 00:35:07;;;;;;;14.50;11.07;;;;;;;;;;5051508;28;20041;-55
2022/01/15 00:37:33;;;;;;;16.50;11.00;;;;;;;;;;5051528;28;20047;-52
2022/01/15 00:39:59;;;;;;;18.23;12.93;;;;;;;;;;5050730;28;20056;-57
2022/01/15 00:42:26;;;;;;;13.70;12.30;;;;;;;;;;5052396;28;20060;-56
2022/01/15 00:44:54;;;;;;;13.73;11.10;;;;;;;;;;5054904;28;20447;-57
2022/01/15 00:47:20;;;;;;;13.77;10.77;;;;;;;;;;5054818;28;20463;-57
2022/01/15 00:49:46;;;;;;;10.77;9.43;;;;;;;;;;5054457;28;20029;-57
2022/01/15 00:52:12;;;;;;;11.97;10.43;;;;;;;;;;5054670;28;20452;-57
2022/01/15 00:54:38;;;;;;;11.80;10.67;;;;;;;;;;5054778;28;20036;-55
2022/01/15 00:57:04;;;;;;;11.37;9.47;;;;;;;;;;5054835;28;20360;-54
2022/01/15 00:59:30;;;;;;;16.37;10.70;;;;;;;;;;5053906;28;20059;-56
2022/01/15 01:01:56;;;;;;;11.80;9.30;;;;;;;;;;5047987;28;20460;-56
2022/01/15 01:04:22;;;;;;;16.03;10.10;;;;;;;;;;5034899;28;20452;-57
2022/01/15 01:06:48;;;;;;;12.67;10.90;;;;;;;;;;5034734;28;20415;-55
2022/01/15 01:09:14;;;;;;;11.77;10.57;;;;;;;;;;5034013;28;20030;-57
2022/01/15 01:24:46;;;;;;;10.93;8.77;;;;;;;;;;5034273;28;20040;-56
2022/01/15 01:27:27;;;;;;;10.93;9.23;;;;;;;;;;5034485;28;20041;-53
2022/01/15 01:32:38;;;;;;;11.53;8.80;;;;;;;;;;5034113;28;20026;-56
2022/01/15 01:35:11;;;;;;;13.90;9.57;;;;;;;;;;5034245;28;20497;-54
2022/01/15 01:37:41;;;;;;;13.17;10.57;;;;;;;;;;5034261;28;20033;-57
2022/01/15 01:40:22;;;;;;;11.10;9.63;;;;;;;;;;5033795;28;20129;-56
2022/01/15 01:43:07;;;;;;;10.77;8.02;;;;;;;;;;5033900;28;20037;-54
2022/01/15 01:45:34;;;;;;;10.57;9.30;;;;;;;;;;5033725;28;20029;-55
2022/01/15 01:48:00;;;;;;;14.90;9.90;;;;;;;;;;5033221;28;20100;-54
2022/01/15 01:50:27;;;;;;;13.50;10.40;;;;;;;;;;5034312;28;20030;-54
2022/01/15 01:52:55;;;;;;;16.77;10.47;;;;;;;;;;5033793;28;20465;-54
2022/01/15 01:55:25;;;;;;;13.83;11.33;;;;;;;;;;5032735;28;20029;-53
2022/01/15 01:57:52;;;;;;;14.45;11.27;;;;;;;;;;5033124;28;20455;-55
2022/01/15 02:00:19;;;;;;;12.63;10.60;;;;;;;;;;5033623;28;20142;-56
2022/01/15 02:02:45;;;;;;;13.83;10.27;;;;;;;;;;5033617;28;20025;-56
2022/01/15 02:05:12;;;;;;;10.53;9.03;;;;;;;;;;5033693;28;20036;-53
2022/01/15 02:07:39;;;;;;;10.17;9.07;;;;;;;;;;5033436;28;20048;-57
2022/01/15 02:10:08;;;;;;;13.37;10.53;;;;;;;;;;5032945;28;20066;-56
2022/01/15 02:12:34;;;;;;;12.63;9.83;;;;;;;;;;5033262;28;20021;-54
2022/01/15 02:15:10;;;;;;;12.93;10.07;;;;;;;;;;5033302;28;20658;-57
2022/01/15 02:17:36;;;;;;;11.03;9.17;;;;;;;;;;5033267;28;20033;-57
2022/01/15 02:25:44;;;;;;;10.13;8.83;;;;;;;;;;5053272;28;20093;-57
2022/01/15 02:28:11;;;;;;;11.52;10.07;;;;;;;;;;5052567;28;20025;-57
2022/01/15 02:30:37;;;;;;;13.00;11.07;;;;;;;;;;5053050;28;20033;-57
2022/01/15 02:33:04;;;;;;;12.20;10.13;;;;;;;;;;5052664;28;20029;-56
2022/01/15 02:35:30;;;;;;;11.03;9.70;;;;;;;;;;5053140;28;20040;-57
2022/01/15 02:38:01;;;;;;;10.23;9.23;;;;;;;;;;5052397;28;20025;-56
2022/01/15 02:40:27;;;;;;;11.70;10.50;;;;;;;;;;5052991;28;20360;-54
2022/01/15 02:42:53;;;;;;;13.67;10.23;;;;;;;;;;5052762;28;20104;-56
2022/01/15 02:45:25;;;;;;;12.00;10.70;;;;;;;;;;5052638;28;20028;-55
2022/01/15 02:48:00;;;;;;;13.70;10.40;;;;;;;;;;5051916;28;20025;-57
2022/01/15 02:50:26;;;;;;;11.13;9.97;;;;;;;;;;5052423;28;20025;-57
2022/01/15 02:52:52;;;;;;;13.43;11.57;;;;;;;;;;5052680;28;20025;-56
2022/01/15 02:55:18;;;;;;;11.93;10.80;;;;;;;;;;5052426;28;20029;-57
2022/01/15 02:57:44;;;;;;;12.03;10.33;;;;;;;;;;5052393;28;20029;-57
2022/01/15 03:00:10;;;;;;;14.47;11.43;;;;;;;;;;5051511;28;20041;-56
2022/01/15 03:02:36;;;;;;;15.50;11.23;;;;;;;;;;5040364;28;20107;-55
2022/01/15 03:05:03;;;;;;;17.60;10.93;;;;;;;;;;5032367;28;20415;-56
2022/01/15 03:07:29;;;;;;;16.60;11.37;;;;;;;;;;5032691;28;20116;-55
2022/01/15 03:09:55;;;;;;;12.87;11.53;;;;;;;;;;5031929;28;20072;-57
2022/01/15 03:12:21;;;;;;;12.57;11.27;;;;;;;;;;5032458;28;20040;-57
2022/01/15 03:14:48;;;;;;;10.53;9.33;;;;;;;;;;5032290;28;20030;-57
2022/01/15 03:17:14;;;;;;;10.53;9.37;;;;;;;;;;5032233;28;20030;-57
2022/01/15 03:19:40;;;;;;;11.23;10.00;;;;;;;;;;5031569;28;20033;-57
2022/01/15 03:22:06;;;;;;;10.20;9.23;;;;;;;;;;5032452;28;20386;-57
2022/01/15 03:24:32;;;;;;;11.57;9.17;;;;;;;;;;5050896;28;20040;-56
2022/01/15 03:26:58;;;;;;;12.70;11.00;;;;;;;;;;5052267;28;20033;-57
2022/01/15 03:29:24;;;;;;;11.03;9.87;;;;;;;;;;5051450;28;20079;-57
2022/01/15 03:31:50;;;;;;;13.27;10.80;;;;;;;;;;5052186;28;20040;-57
2022/01/15 03:34:16;;;;;;;10.50;9.40;;;;;;;;;;5051835;28;20033;-56
2022/01/15 03:36:42;;;;;;;17.93;9.40;;;;;;;;;;5052312;28;20033;-57
2022/01/15 03:39:08;;;;;;;10.60;9.47;;;;;;;;;;5051424;28;20086;-57
2022/01/15 03:41:34;;;;;;;11.47;10.27;;;;;;;;;;5052004;28;20037;-57
2022/01/15 03:44:00;;;;;;;12.90;8.97;;;;;;;;;;5052181;28;20028;-57
2022/01/15 03:46:26;;;;;;;11.50;9.03;;;;;;;;;;5052241;28;20029;-57
2022/01/15 03:48:53;;;;;;;11.67;9.87;;;;;;;;;;5051349;28;20171;-56
2022/01/15 03:51:19;;;;;;;15.17;10.27;;;;;;;;;;5052034;28;20032;-57
2022/01/15 03:53:45;;;;;;;11.47;9.33;;;;;;;;;;5051791;28;20025;-57
2022/01/15 03:56:11;;;;;;;12.47;9.17;;;;;;;;;;5051986;28;20025;-57
2022/01/15 03:58:37;;;;;;;10.50;9.03;;;;;;;;;;5051213;28;20112;-56
2022/01/15 04:01:03;;;;;;;11.50;10.33;;;;;;;;;;5051471;28;20032;-55
2022/01/15 04:03:29;;;;;;;13.20;10.13;;;;;;;;;;5032601;28;20100;-56
2022/01/15 04:05:55;;;;;;;11.27;9.07;;;;;;;;;;5031879;28;20467;-56
2022/01/15 04:08:21;;;;;;;14.63;9.77;;;;;;;;;;5030272;28;20032;-56
2022/01/15 04:10:47;;;;;;;10.03;8.77;;;;;;;;;;5031790;28;20026;-55
2022/01/15 04:13:15;;;;;;;12.97;10.10;;;;;;;;;;5031727;28;20030;-55
2022/01/15 04:15:41;;;;;;;18.07;10.30;;;;;;;;;;5031403;28;20026;-57
2022/01/15 04:18:08;;;;;;;12.40;8.10;;;;;;;;;;5032919;28;20451;-55
2022/01/15 04:20:34;;;;;;;12.90;9.57;;;;;;;;;;5035335;28;20376;-54
2022/01/15 04:23:00;;;;;;;13.30;10.37;;;;;;;;;;5041389;28;20370;-57
2022/01/15 04:25:26;;;;;;;9.83;8.83;;;;;;;;;;5055167;28;20032;-55
2022/01/15 04:27:56;;;;;;;11.63;9.60;;;;;;;;;;5054693;28;20037;-56
2022/01/15 04:30:24;;;;;;;13.50;10.75;;;;;;;;;;5050918;28;20040;-56
2022/01/15 04:32:50;;;;;;;9.83;8.80;;;;;;;;;;5054308;28;20033;-55
2022/01/15 04:35:16;;;;;;;14.50;9.33;;;;;;;;;;5043692;28;20108;-51
2022/01/15 04:37:46;;;;;;;11.70;8.67;;;;;;;;;;5055111;28;20155;-57
2022/01/15 04:40:13;;;;;;;9.95;8.95;;;;;;;;;;5054381;28;20036;-55
2022/01/15 04:42:39;;;;;;;12.60;9.10;;;;;;;;;;5053822;28;20470;-56
2022/01/15 04:45:07;;;;;;;12.23;9.73;;;;;;;;;;5051719;28;20481;-54
2022/01/15 04:47:33;;;;;;;11.30;9.20;;;;;;;;;;5051627;28;20395;-55
2022/01/15 04:49:59;;;;;;;10.50;9.43;;;;;;;;;;5054053;28;20048;-55
2022/01/15 04:52:25;;;;;;;15.83;9.93;;;;;;;;;;5054467;28;20390;-56
2022/01/15 04:54:51;;;;;;;15.93;8.60;;;;;;;;;;5054466;28;20124;-55
2022/01/15 04:57:18;;;;;;;14.03;11.07;;;;;;;;;;5054204;28;20040;-56
2022/01/15 04:59:44;;;;;;;11.30;10.13;;;;;;;;;;5053552;28;20037;-57
2022/01/15 05:02:10;;;;;;;12.27;9.70;;;;;;;;;;5053712;28;20425;-57
2022/01/15 05:04:36;;;;;;;9.97;8.83;;;;;;;;;;5054482;28;20071;-57
2022/01/15 05:07:02;;;;;;;13.57;9.37;;;;;;;;;;5054437;28;20033;-57
2022/01/15 05:09:28;;;;;;;11.33;10.13;;;;;;;;;;5053362;28;20072;-55
2022/01/15 05:12:05;;;;;;;12.37;9.03;;;;;;;;;;5054076;28;20486;-56
2022/01/15 05:14:31;;;;;;;11.70;9.70;;;;;;;;;;5054417;28;20086;-54
2022/01/15 05:16:57;;;;;;;9.43;7.80;;;;;;;;;;5054056;28;20033;-57
2022/01/15 05:19:23;;;;;;;10.07;8.90;;;;;;;;;;5052956;28;20628;-57
2022/01/15 05:21:49;;;;;;;10.30;8.50;;;;;;;;;;5054068;28;20033;-57
2022/01/15 05:24:15;;;;;;;10.83;8.80;;;;;;;;;;5053727;28;20128;-57
2022/01/15 05:26:41;;;;;;;17.10;8.90;;;;;;;;;;5053910;28;20159;-55
2022/01/15 05:29:07;;;;;;;9.47;8.47;;;;;;;;;;5053328;28;20037;-57
2022/01/15 05:31:33;;;;;;;10.23;8.30;;;;;;;;;;5053849;28;20033;-56
2022/01/15 05:33:59;;;;;;;13.27;9.83;;;;;;;;;;5053414;28;20107;-56
2022/01/15 05:36:25;;;;;;;10.30;9.30;;;;;;;;;;5053500;28;20040;-56
2022/01/15 05:38:51;;;;;;;14.77;9.93;;;;;;;;;;5053123;28;20108;-57
2022/01/15 05:41:17;;;;;;;10.83;8.80;;;;;;;;;;5052953;28;20072;-56
2022/01/15 05:43:43;;;;;;;11.90;9.27;;;;;;;;;;5053742;28;20080;-57
2022/01/15 05:46:09;;;;;;;10.10;8.07;;;;;;;;;;5053643;28;20032;-56
2022/01/15 05:48:35;;;;;;;10.60;8.97;;;;;;;;;;5052717;28;20112;-55
2022/01/15 05:51:01;;;;;;;10.87;9.43;;;;;;;;;;5053182;28;20040;-55
2022/01/15 05:53:27;;;;;;;10.67;9.63;;;;;;;;;;5053106;28;20067;-54
2022/01/15 05:55:53;;;;;;;9.77;8.77;;;;;;;;;;5049370;28;20033;-57
2022/01/15 05:58:19;;;;;;;11.43;10.00;;;;;;;;;;5052855;28;20036;-57
2022/01/15 06:00:45;;;;;;;18.90;10.23;;;;;;;;;;5052980;28;20069;-57
2022/01/15 06:03:11;;;;;;;13.30;9.73;;;;;;;;;;5039825;28;20501;-57
2022/01/15 06:05:37;;;;;;;12.40;10.63;;;;;;;;;;5053199;28;20116;-55
2022/01/15 06:08:03;;;;;;;15.90;9.70;;;;;;;;;;5052418;28;20033;-55
2022/01/15 06:10:29;;;;;;;11.67;9.23;;;;;;;;;;5053188;28;20043;-55
2022/01/15 06:12:55;;;;;;;10.57;8.80;;;;;;;;;;5052878;28;20033;-57
2022/01/15 06:15:21;;;;;;;11.40;9.57;;;;;;;;;;5053301;28;20037;-57
2022/01/15 06:17:47;;;;;;;11.33;10.10;;;;;;;;;;5052533;28;20028;-56
2022/01/15 06:20:14;;;;;;;14.17;10.87;;;;;;;;;;5052923;28;20043;-57
2022/01/15 06:22:40;;;;;;;22.30;11.27;;;;;;;;;;5052624;28;20063;-55
2022/01/15 06:25:07;;;;;;;14.60;12.97;;;;;;;;;;5053069;28;20037;-57
2022/01/15 06:27:33;;;;;;;12.13;10.40;;;;;;;;;;5052610;28;20025;-57
2022/01/15 06:29:59;;;;;;;10.37;9.03;;;;;;;;;;5052278;28;20021;-51
2022/01/15 06:32:28;;;;;;;12.10;9.40;;;;;;;;;;5052537;28;20129;-58
2022/01/15 06:34:54;;;;;;;12.07;10.27;;;;;;;;;;5052793;28;20119;-56
2022/01/15 06:37:21;;;;;;;11.83;10.63;;;;;;;;;;5052311;28;20064;-57
2022/01/15 06:39:47;;;;;;;10.53;9.37;;;;;;;;;;5050933;28;20479;-55
2022/01/15 06:42:13;;;;;;;12.67;10.23;;;;;;;;;;5052221;28;20482;-57
2022/01/15 06:44:39;;;;;;;11.27;10.00;;;;;;;;;;5052609;28;20024;-57
2022/01/15 06:47:05;;;;;;;15.97;10.50;;;;;;;;;;5052432;28;20090;-57
2022/01/15 06:49:31;;;;;;;14.20;9.77;;;;;;;;;;5051903;28;20103;-54
2022/01/15 06:51:57;;;;;;;12.90;11.13;;;;;;;;;;5051915;28;20075;-56
2022/01/15 06:54:23;;;;;;;12.13;10.17;;;;;;;;;;5051889;28;20029;-55
2022/01/15 06:56:49;;;;;;;12.33;9.97;;;;;;;;;;5052054;28;20067;-56
2022/01/15 06:59:15;;;;;;;14.47;11.33;;;;;;;;;;5051962;28;20368;-57
2022/01/15 07:01:41;;;;;;;12.80;11.17;;;;;;;;;;5051945;28;20033;-54
2022/01/15 07:04:07;;;;;;;14.27;12.50;;;;;;;;;;5052284;28;20036;-55
2022/01/15 07:06:33;;;;;;;10.20;8.87;;;;;;;;;;5052287;28;20032;-55
2022/01/15 07:08:59;;;;;;;13.80;11.57;;;;;;;;;;5051216;28;20402;-56
2022/01/15 07:11:25;;;;;;;17.67;12.40;;;;;;;;;;5052131;28;20043;-55
2022/01/15 07:13:51;;;;;;;15.10;11.47;;;;;;;;;;5052275;28;20485;-55
2022/01/15 07:16:17;;;;;;;11.73;10.53;;;;;;;;;;5051974;28;20032;-55
2022/01/15 07:18:43;;;;;;;11.73;9.67;;;;;;;;;;5051224;28;20329;-56
2022/01/15 07:21:10;;;;;;;10.30;9.23;;;;;;;;;;5051574;28;20037;-58
2022/01/15 07:23:36;;;;;;;15.97;11.80;;;;;;;;;;5051245;28;20029;-56
2022/01/15 07:26:02;;;;;;;13.07;9.97;;;;;;;;;;5051760;28;20032;-57
2022/01/15 07:28:30;;;;;;;16.10;10.90;;;;;;;;;;5051413;28;20040;-57
2022/01/15 07:30:56;;;;;;;12.07;10.07;;;;;;;;;;5051633;28;20029;-51
2022/01/15 07:33:22;;;;;;;12.73;10.57;;;;;;;;;;5052054;28;20036;-56
2022/01/15 07:35:48;;;;;;;13.93;11.03;;;;;;;;;;5052135;28;20467;-56
2022/01/15 07:38:14;;;;;;;16.57;11.83;;;;;;;;;;5050398;28;20032;-57
2022/01/15 07:40:41;;;;;;;13.47;12.07;;;;;;;;;;5051605;28;20056;-56
2022/01/15 07:43:07;;;;;;;16.47;11.70;;;;;;;;;;5051365;28;20033;-55
2022/01/15 07:45:33;;;;;;;12.30;11.07;;;;;;;;;;5051991;28;20037;-54
2022/01/15 07:47:59;;;;;;;14.20;11.33;;;;;;;;;;5050785;28;20029;-57
2022/01/15 07:50:25;;;;;;;14.67;10.43;;;;;;;;;;5050961;28;20045;-57
2022/01/15 07:52:52;;;;;;;12.60;10.97;;;;;;;;;;5055002;28;20032;-56
2022/01/15 07:55:18;;;;;;;12.17;10.43;;;;;;;;;;5055659;28;20037;-57
2022/01/15 07:57:45;;;;;;;15.80;12.30;;;;;;;;;;5055457;28;20115;-57
2022/01/15 08:00:14;;;;;;;15.37;12.17;;;;;;;;;;5055056;28;20048;-57
2022/01/15 08:02:40;;;;;;;12.93;11.23;;;;;;;;;;5042703;28;20040;-56
2022/01/15 08:05:07;;;;;;;13.83;11.73;;;;;;;;;;5047011;28;20104;-57
2022/01/15 08:07:33;;;;;;;14.50;12.50;;;;;;;;;;5053671;28;20104;-57
2022/01/15 08:09:59;;;;;;;13.07;11.70;;;;;;;;;;5054341;28;20101;-56
2022/01/15 08:12:24;;;;;;;14.53;12.07;;;;;;;;;;5050758;28;20021;-55
2022/01/15 08:14:51;;;;;;;14.67;11.00;;;;;;;;;;5051364;28;20522;-56
2022/01/15 08:17:17;;;;;;;14.27;11.80;;;;;;;;;;5052853;28;20510;-54
2022/01/15 08:19:43;;;;;;;14.53;13.03;;;;;;;;;;5052695;28;20032;-56
2022/01/15 08:22:10;;;;;;;14.33;11.50;;;;;;;;;;5052948;28;20033;-55
2022/01/15 08:24:36;;;;;;;12.90;10.73;;;;;;;;;;5051649;28;20437;-57
2022/01/15 08:27:02;;;;;;;14.67;11.63;;;;;;;;;;5051563;28;20462;-56
2022/01/15 08:29:28;;;;;;;23.23;15.50;;;;;;;;;;5045836;28;20025;-57
2022/01/15 08:31:56;;;;;;;17.40;14.57;;;;;;;;;;5049719;28;20029;-55
2022/01/15 08:34:22;;;;;;;14.80;13.50;;;;;;;;;;5052901;28;20052;-55
2022/01/15 08:36:48;;;;;;;20.67;14.83;;;;;;;;;;5045777;28;20525;-57
2022/01/15 08:39:14;;;;;;;20.27;15.57;;;;;;;;;;5053818;28;20032;-58
2022/01/15 08:41:40;;;;;;;14.73;12.50;;;;;;;;;;5054108;28;20036;-57
2022/01/15 08:44:06;;;;;;;18.73;14.23;;;;;;;;;;5054035;28;20028;-57
2022/01/15 08:46:33;;;;;;;14.93;13.33;;;;;;;;;;5050538;28;20103;-57
2022/01/15 08:48:59;;;;;;;16.67;12.53;;;;;;;;;;5046694;28;20360;-59
2022/01/15 08:51:25;;;;;;;14.27;12.83;;;;;;;;;;5034333;28;20033;-59
2022/01/15 08:53:51;;;;;;;15.37;11.50;;;;;;;;;;5034665;28;20076;-58
2022/01/15 08:56:17;;;;;;;25.53;13.73;;;;;;;;;;5034727;28;20029;-58
2022/01/15 08:58:43;;;;;;;16.17;14.47;;;;;;;;;;5033918;28;20378;-58
2022/01/15 09:01:13;;;;;;;16.33;13.07;;;;;;;;;;5034501;28;20102;-59
2022/01/15 09:03:39;;;;;;;16.03;12.40;;;;;;;;;;5044404;28;20029;-58
2022/01/15 09:06:05;;;;;;;13.23;11.93;;;;;;;;;;5054656;28;20375;-58
2022/01/15 09:08:31;;;;;;;12.80;11.53;;;;;;;;;;5052571;28;20029;-58
2022/01/15 09:10:57;;;;;;;17.20;12.87;;;;;;;;;;5054497;28;20429;-59
2022/01/15 09:13:23;;;;;;;12.13;10.93;;;;;;;;;;5054278;28;20029;-59
2022/01/15 09:15:52;;;;;;;14.43;13.00;;;;;;;;;;5054166;28;20079;-59
2022/01/15 09:18:19;;;;;;;15.07;13.60;;;;;;;;;;5045213;28;20029;-59
2022/01/15 09:20:45;;;;;;;15.67;12.33;;;;;;;;;;5044186;28;20132;-59
2022/01/15 09:23:12;;;;;;;14.63;12.20;;;;;;;;;;5052667;28;20060;-59
2022/01/15 09:25:38;;;;;;;17.13;14.57;;;;;;;;;;5053139;28;20429;-56
2022/01/15 09:30:49;;;;;;;14.83;13.27;;;;;;;;;;5052810;28;20102;-59
2022/01/15 09:33:15;;;;;;;16.37;13.40;;;;;;;;;;5053633;28;20421;-59
2022/01/15 09:35:41;;;;;;;15.57;14.03;;;;;;;;;;5053792;28;20028;-59
2022/01/15 09:38:08;;;;;;;15.93;13.97;;;;;;;;;;5042566;28;20033;-59
2022/01/15 09:40:34;;;;;;;17.83;14.63;;;;;;;;;;5052899;28;20041;-59
2022/01/15 09:43:01;;;;;;;15.53;13.87;;;;;;;;;;5052969;28;20410;-59
2022/01/15 09:45:29;;;;;;;16.20;14.13;;;;;;;;;;5053850;28;20123;-59
2022/01/15 09:47:57;;;;;;;15.47;13.43;;;;;;;;;;5050278;28;20039;-59
2022/01/15 09:50:24;;;;;;;14.67;13.13;;;;;;;;;;5053315;28;20390;-59
2022/01/15 09:52:50;;;;;;;17.17;15.37;;;;;;;;;;5053012;28;20120;-57
2022/01/15 09:55:16;;;;;;;17.63;15.53;;;;;;;;;;5052063;28;20078;-57
2022/01/15 09:57:42;;;;;;;21.67;16.23;;;;;;;;;;5052629;28;20036;-58
2022/01/15 10:00:17;;;;;;;17.63;15.83;;;;;;;;;;5051945;28;20045;-57
2022/01/15 10:02:44;;;;;;;15.73;14.17;;;;;;;;;;5048558;28;20062;-58
2022/01/15 10:05:10;;;;;;;17.87;14.77;;;;;;;;;;5053105;28;20063;-58
2022/01/15 10:07:36;;;;;;;16.23;14.53;;;;;;;;;;5052849;28;20033;-58
2022/01/15 10:10:13;;;;;;;21.23;17.17;;;;;;;;;;5051927;28;20048;-57
2022/01/15 10:12:42;;;;;;;18.67;16.73;;;;;;;;;;5052042;28;20078;-57
2022/01/15 10:15:08;;;;;;;17.87;15.80;;;;;;;;;;5040199;28;20037;-58
2022/01/15 10:17:35;;;;;;;23.27;16.37;;;;;;;;;;5052791;28;20129;-57
2022/01/15 10:20:05;;;;;;;17.17;15.07;;;;;;;;;;5051907;28;20052;-57
2022/01/15 10:22:32;;;;;;;18.60;16.58;;;;;;;;;;5052302;28;20036;-58
2022/01/15 10:25:03;;;;;;;16.90;13.93;;;;;;;;;;5051895;28;20040;-57
2022/01/15 10:27:33;;;;;;;18.13;16.20;;;;;;;;;;5052412;28;20075;-58
2022/01/15 10:29:59;;;;;;;16.48;14.50;;;;;;;;;;5049973;28;20033;-58
2022/01/15 10:32:30;;;;;;;17.30;15.50;;;;;;;;;;5052019;28;20036;-58
2022/01/15 10:34:57;;;;;;;21.07;16.20;;;;;;;;;;5050829;28;20120;-58
2022/01/15 10:37:37;;;;;;;16.33;14.30;;;;;;;;;;5068618;28;20395;-56
2022/01/15 10:40:12;;;;;;;19.43;13.73;;;;;;;;;;5067745;28;20029;-57
2022/01/15 10:42:38;;;;;;;18.13;13.97;;;;;;;;;;5069091;28;20033;-56
2022/01/15 10:45:08;;;;;;;18.93;14.37;;;;;;;;;;5063631;28;20032;-57
2022/01/15 10:47:39;;;;;;;17.50;15.57;;;;;;;;;;5062944;28;20031;-58
2022/01/15 10:50:05;;;;;;;;;;;;;;;;;;5060806;28;20393;-58
2022/01/15 10:52:31;;;;;;;17.33;13.93;;;;;;;;;;5058645;28;20004;-58
2022/01/15 10:55:02;;;;;;;19.60;16.87;;;;;;;;;;5065820;28;20052;-58
2022/01/15 10:57:32;;;;;;;15.75;14.18;;;;;;;;;;5065115;28;20124;-58
2022/01/15 11:00:04;;;;;;;19.13;15.85;;;;;;;;;;5058027;28;20031;-59
2022/01/15 11:02:30;;;;;;;16.83;15.13;;;;;;;;;;5063649;28;20114;-58
2022/01/15 11:04:57;;;;;;;21.77;16.67;;;;;;;;;;5068184;28;20033;-58
2022/01/15 11:07:23;;;;;;;21.80;16.17;;;;;;;;;;5068423;28;20029;-59
2022/01/15 11:09:53;;;;;;;20.57;15.77;;;;;;;;;;5068782;28;20056;-59
2022/01/15 11:12:20;;;;;;;16.08;14.38;;;;;;;;;;5071165;28;20056;-57
2022/01/15 11:14:46;;;;;;;16.03;14.27;;;;;;;;;;5075774;28;20032;-58
2022/01/15 11:17:13;;;;;;;19.20;16.47;;;;;;;;;;5069502;28;20032;-58
2022/01/15 11:19:40;;;;;;;17.50;14.70;;;;;;;;;;5062415;28;20041;-58
2022/01/15 11:22:06;;;;;;;22.97;16.40;;;;;;;;;;5067507;28;20021;-58
2022/01/15 11:24:32;;;;;;;18.33;16.40;;;;;;;;;;5067862;28;20119;-58
2022/01/15 11:27:00;;;;;;;19.90;16.10;;;;;;;;;;5068029;28;20136;-58
2022/01/15 11:29:26;;;;;;;19.90;15.97;;;;;;;;;;5067554;28;20039;-59
2022/01/15 11:31:58;;;;;;;17.07;14.60;;;;;;;;;;5067425;28;20043;-59
2022/01/15 11:34:24;;;;;;;19.33;14.47;;;;;;;;;;5066015;28;20033;-57
2022/01/15 11:36:50;;;;;;;18.00;15.77;;;;;;;;;;5059306;28;20026;-58
2022/01/15 11:39:20;;;;;;;18.23;14.47;;;;;;;;;;5054688;28;20036;-58
2022/01/15 11:41:49;;;;;;;21.20;17.00;;;;;;;;;;5064160;28;20495;-59
2022/01/15 11:44:20;;;;;;;20.83;16.60;;;;;;;;;;5066973;28;20267;-57
2022/01/15 11:46:47;;;;;;;;;;;;;;;;;;5062868;28;20029;-56
2022/01/15 11:49:24;;;;;;;16.37;14.50;;;;;;;;;;5047194;28;19993;-58
2022/01/15 11:51:55;;;;;;;17.63;15.47;;;;;;;;;;5054192;28;20109;-58
2022/01/15 11:54:21;;;;;;;18.73;16.77;;;;;;;;;;5043683;28;20034;-59
2022/01/15 11:56:48;;;;;;;16.93;15.17;;;;;;;;;;5053692;28;20056;-58
2022/01/15 11:59:23;;;;;;;21.53;16.13;;;;;;;;;;5053989;28;20039;-57
2022/01/15 12:01:50;;;;;;;27.58;17.67;;;;;;;;;;5059345;28;20029;-57
2022/01/15 12:04:22;;;;;;;23.33;16.43;;;;;;;;;;5049405;28;20025;-57
2022/01/15 12:07:11;;;;;;;17.83;15.33;;;;;;;;;;5047934;28;20051;-59
2022/01/15 12:09:43;;;;;;;23.58;18.52;;;;;;;;;;5059364;28;20045;-58
2022/01/15 12:12:27;;;;;;;23.80;16.85;;;;;;;;;;5056224;28;20462;-57
2022/01/15 12:14:56;;;;;;;15.88;14.23;;;;;;;;;;5063711;28;20138;-59
2022/01/15 12:17:26;;;;;;;22.77;18.00;;;;;;;;;;5063590;28;20043;-56
2022/01/15 12:19:52;;;;;;;20.45;17.27;;;;;;;;;;5068805;28;20040;-58
2022/01/15 12:22:34;;;;;;;21.90;15.93;;;;;;;;;;5071805;28;20033;-56
2022/01/15 12:25:00;;;;;;;17.67;15.73;;;;;;;;;;5052591;28;20029;-58
2022/01/15 12:27:27;;;;;;;20.13;16.27;;;;;;;;;;5051026;28;20552;-59
2022/01/15 12:30:00;;;;;;;18.47;16.53;;;;;;;;;;5052487;28;20533;-59
2022/01/15 12:32:28;;;;;;;19.30;17.07;;;;;;;;;;5053501;28;20083;-58
2022/01/15 12:34:54;;;;;;;20.95;15.73;;;;;;;;;;5052893;28;20029;-59
2022/01/15 12:37:20;;;;;;;18.10;15.83;;;;;;;;;;5048351;28;20041;-58
2022/01/15 12:39:46;;;;;;;17.17;14.75;;;;;;;;;;5053256;28;20031;-57
2022/01/15 12:42:13;;;;;;;19.33;16.67;;;;;;;;;;5053974;28;20029;-59
2022/01/15 12:44:43;;;;;;;17.85;15.75;;;;;;;;;;5047291;28;20061;-59
2022/01/15 12:47:08;;;;;;;20.30;16.25;;;;;;;;;;5050532;28;20334;-57
2022/01/15 12:49:39;;;;;;;20.63;16.10;;;;;;;;;;5052262;28;20035;-58
2022/01/15 12:52:08;;;;;;;19.88;16.17;;;;;;;;;;5050560;28;20017;-58
2022/01/15 12:54:34;;;;;;;17.08;15.32;;;;;;;;;;5052370;28;20129;-58
2022/01/15 12:57:00;;;;;;;23.80;16.07;;;;;;;;;;5048249;28;20037;-57
2022/01/15 12:59:27;;;;;;;22.73;15.80;;;;;;;;;;5050723;28;20037;-57
2022/01/15 13:01:53;;;;;;;21.27;16.38;;;;;;;;;;5047722;28;20025;-58
2022/01/15 13:04:20;;;;;;;20.77;17.65;;;;;;;;;;5051491;28;20382;-57
2022/01/15 13:06:50;;;;;;;22.13;16.10;;;;;;;;;;5048890;28;20127;-55
2022/01/15 13:09:16;;;;;;;22.75;18.85;;;;;;;;;;5051530;28;20455;-58
2022/01/15 13:11:48;;;;;;;20.45;16.77;;;;;;;;;;5050475;28;20068;-56
2022/01/15 13:14:14;;;;;;;21.00;16.65;;;;;;;;;;5052892;28;20180;-58
2022/01/15 13:16:40;;;;;;;20.83;16.63;;;;;;;;;;5052049;28;20106;-55
2022/01/15 13:19:07;;;;;;;23.15;18.67;;;;;;;;;;5049787;28;20029;-58
2022/01/15 13:21:34;;;;;;;23.55;19.38;;;;;;;;;;5052633;28;20025;-58
2022/01/15 13:24:03;;;;;;;19.77;17.40;;;;;;;;;;5046345;28;20022;-58
2022/01/15 13:26:28;;;;;;;19.45;17.42;;;;;;;;;;5051679;28;20037;-57
2022/01/15 13:28:55;;;;;;;21.23;17.50;;;;;;;;;;5051534;28;20059;-58
2022/01/15 13:31:26;;;;;;;21.25;18.67;;;;;;;;;;5051920;28;20040;-58
2022/01/15 13:33:52;;;;;;;25.38;19.25;;;;;;;;;;5051233;28;20108;-58
2022/01/15 13:36:19;;;;;;;18.83;16.90;;;;;;;;;;5045395;28;20507;-58
2022/01/15 13:38:49;;;;;;;21.90;18.05;;;;;;;;;;5051775;28;20033;-58
2022/01/15 13:41:25;;;;;;;24.17;19.08;;;;;;;;;;5052171;28;20025;-57
2022/01/15 13:43:56;;;;;;;23.23;19.13;;;;;;;;;;5048365;28;20043;-57
2022/01/15 13:46:23;;;;;;;29.33;17.40;;;;;;;;;;5051865;28;20071;-58
2022/01/15 13:48:54;;;;;;;20.00;17.90;;;;;;;;;;5051284;28;20078;-56
2022/01/15 13:54:17;;;;;;;20.00;17.60;;;;;;;;;;5042759;28;20100;-58
2022/01/15 13:56:47;;;;;;;23.67;17.30;;;;;;;;;;5049639;28;20043;-58
2022/01/15 13:59:15;;;;;;;19.15;17.15;;;;;;;;;;5047171;28;20033;-57
2022/01/15 14:01:50;;;;;;;28.08;17.10;;;;;;;;;;5047084;28;20018;-57
2022/01/15 14:04:31;;;;;;;24.55;18.67;;;;;;;;;;5045003;28;20370;-58
2022/01/15 14:07:01;;;;;;;25.00;18.75;;;;;;;;;;5051454;28;20497;-57
2022/01/15 14:09:28;;;;;;;23.30;19.23;;;;;;;;;;5043755;28;20451;-58
2022/01/15 14:12:00;;;;;;;20.85;17.58;;;;;;;;;;5047561;28;20455;-58
2022/01/15 14:14:26;;;;;;;19.70;17.55;;;;;;;;;;5051595;28;20048;-57
2022/01/15 14:16:59;;;;;;;26.38;20.70;;;;;;;;;;5051583;28;20037;-57
2022/01/15 14:21:57;;;;;;;17.33;15.55;;;;;;;;;;5051066;28;20040;-57
2022/01/15 14:24:25;;;;;;;25.45;19.05;;;;;;;;;;5039842;28;20057;-58
2022/01/15 14:26:54;;;;;;;23.15;17.60;;;;;;;;;;5041257;28;20060;-58
2022/01/15 14:29:21;;;;;;;28.10;19.27;;;;;;;;;;5047273;28;20032;-58
2022/01/15 14:31:46;;;;;;;24.90;18.55;;;;;;;;;;5051046;28;20033;-57
2022/01/15 14:34:13;;;;;;;18.80;16.02;;;;;;;;;;5051467;28;20462;-58
2022/01/15 14:36:39;;;;;;;22.60;17.60;;;;;;;;;;5051437;28;20056;-58
2022/01/15 14:39:05;;;;;;;23.42;17.98;;;;;;;;;;5049134;28;20025;-57
2022/01/15 14:41:32;;;;;;;21.40;16.25;;;;;;;;;;5051063;28;20033;-59
2022/01/15 14:43:58;;;;;;;32.20;18.90;;;;;;;;;;5039799;28;20064;-57
2022/01/15 14:46:24;;;;;;;19.13;16.47;;;;;;;;;;5051478;28;20102;-57
2022/01/15 14:48:50;;;;;;;18.83;16.50;;;;;;;;;;5050759;28;20109;-56
2022/01/15 14:51:16;;;;;;;26.77;19.10;;;;;;;;;;5050142;28;20052;-57